EZY85YJ EGKK-LDDU
Flight info
| Callsign | EZY85YJ |
|---|---|
| Flight time | 2h 31m |
| Altitude | 37000 |
| Route | DVR L9 KONAN DCT KOK DCT KOMOB DCT KRH DCT UTABA DCT BEMKI DCT ELMEM DCT DIRAB DCT PEVAL DCT SPL DCT SIPAL |
| Aircraft | A320/M-SDE2E3FGHIJ1RWXYZ/LB1 |
Departure
| Time | 2026-05-05 16:00 |
|---|---|
| Airport | London Gatwick Airport (EGKK) |
Arrival
| Time | 2026-05-05 18:31 |
|---|---|
| Airport | Dubrovnik Ruđer Bošković Airport (LDDU) |
| Time | Latitude | Longitude | Altitude | Speed | Heading |
|---|---|---|---|---|---|
| 2026-05-05 14:56 | 51.16277 | -0.18089 | 204 ft | 0 kts | 78° |
| 2026-05-05 15:45 | 51.16277 | -0.18090 | 204 ft | 1 kts | 78° |
| 2026-05-05 15:45 | 51.16272 | -0.18127 | 204 ft | 4 kts | 78° |
| 2026-05-05 15:45 | 51.16267 | -0.18159 | 204 ft | 4 kts | 62° |
| 2026-05-05 15:45 | 51.16252 | -0.18185 | 213 ft | 3 kts | 53° |
| 2026-05-05 15:46 | 51.16245 | -0.18209 | 215 ft | 4 kts | 136° |
| 2026-05-05 15:46 | 51.16267 | -0.18226 | 204 ft | 4 kts | 168° |
| 2026-05-05 15:46 | 51.16279 | -0.18230 | 204 ft | 0 kts | 168° |
| 2026-05-05 15:49 | 51.16267 | -0.18226 | 204 ft | 4 kts | 168° |
| 2026-05-05 15:49 | 51.16224 | -0.18212 | 207 ft | 9 kts | 169° |
| 2026-05-05 15:49 | 51.16153 | -0.18187 | 214 ft | 12 kts | 167° |
| 2026-05-05 15:49 | 51.16069 | -0.18158 | 204 ft | 13 kts | 168° |
| 2026-05-05 15:50 | 51.15974 | -0.18126 | 204 ft | 15 kts | 168° |
| 2026-05-05 15:50 | 51.15868 | -0.18088 | 204 ft | 16 kts | 167° |
| 2026-05-05 15:50 | 51.15770 | -0.18054 | 204 ft | 12 kts | 168° |
| 2026-05-05 15:50 | 51.15699 | -0.18049 | 210 ft | 10 kts | 211° |
| 2026-05-05 15:51 | 51.15674 | -0.18141 | 212 ft | 9 kts | 256° |
| 2026-05-05 15:51 | 51.15661 | -0.18234 | 212 ft | 8 kts | 258° |
| 2026-05-05 15:51 | 51.15649 | -0.18321 | 214 ft | 8 kts | 258° |
| 2026-05-05 15:51 | 51.15637 | -0.18414 | 213 ft | 10 kts | 258° |
| 2026-05-05 15:52 | 51.15621 | -0.18532 | 207 ft | 12 kts | 258° |
| 2026-05-05 15:52 | 51.15601 | -0.18674 | 211 ft | 14 kts | 257° |
| 2026-05-05 15:52 | 51.15575 | -0.18808 | 204 ft | 11 kts | 229° |
| 2026-05-05 15:52 | 51.15502 | -0.18810 | 204 ft | 12 kts | 168° |
| 2026-05-05 15:53 | 51.15418 | -0.18782 | 204 ft | 13 kts | 167° |
| 2026-05-05 15:53 | 51.15327 | -0.18750 | 208 ft | 13 kts | 167° |
| 2026-05-05 15:53 | 51.15237 | -0.18718 | 213 ft | 13 kts | 167° |
| 2026-05-05 15:53 | 51.15161 | -0.18698 | 208 ft | 10 kts | 186° |
| 2026-05-05 15:54 | 51.15124 | -0.18770 | 209 ft | 9 kts | 257° |
| 2026-05-05 15:54 | 51.15110 | -0.18882 | 207 ft | 12 kts | 258° |
| 2026-05-05 15:54 | 51.15099 | -0.18965 | 212 ft | 11 kts | 258° |
| 2026-05-05 15:54 | 51.15083 | -0.19082 | 212 ft | 12 kts | 257° |
| 2026-05-05 15:55 | 51.15048 | -0.19330 | 204 ft | 20 kts | 258° |
| 2026-05-05 15:55 | 51.15029 | -0.19471 | 204 ft | 19 kts | 258° |
| 2026-05-05 15:55 | 51.15002 | -0.19665 | 215 ft | 17 kts | 257° |
| 2026-05-05 15:55 | 51.14977 | -0.19843 | 208 ft | 17 kts | 257° |
| 2026-05-05 15:56 | 51.14949 | -0.20043 | 203 ft | 20 kts | 257° |
| 2026-05-05 15:56 | 51.14916 | -0.20277 | 203 ft | 22 kts | 257° |
| 2026-05-05 15:56 | 51.14885 | -0.20504 | 203 ft | 20 kts | 258° |
| 2026-05-05 15:56 | 51.14857 | -0.20712 | 203 ft | 18 kts | 257° |
| 2026-05-05 15:57 | 51.14831 | -0.20899 | 204 ft | 16 kts | 257° |
| 2026-05-05 15:57 | 51.14808 | -0.21062 | 204 ft | 14 kts | 258° |
| 2026-05-05 15:57 | 51.14784 | -0.21187 | 204 ft | 11 kts | 252° |
| 2026-05-05 15:57 | 51.14768 | -0.21297 | 204 ft | 10 kts | 258° |
| 2026-05-05 15:58 | 51.14746 | -0.21389 | 213 ft | 8 kts | 224° |
| 2026-05-05 15:58 | 51.14694 | -0.21388 | 215 ft | 9 kts | 154° |
| 2026-05-05 15:58 | 51.14630 | -0.21330 | 209 ft | 11 kts | 165° |
| 2026-05-05 15:58 | 51.14555 | -0.21296 | 207 ft | 12 kts | 146° |
| 2026-05-05 15:59 | 51.14520 | -0.21170 | 202 ft | 14 kts | 83° |
| 2026-05-05 15:59 | 51.14553 | -0.20928 | 204 ft | 47 kts | 77° |
| 2026-05-05 15:59 | 51.14671 | -0.20066 | 209 ft | 112 kts | 77° |
| 2026-05-05 15:59 | 51.14877 | -0.18575 | 294 ft | 154 kts | 77° |
| 2026-05-05 16:00 | 51.15106 | -0.16943 | 1076 ft | 150 kts | 77° |
| 2026-05-05 16:00 | 51.15340 | -0.15263 | 1655 ft | 165 kts | 76° |
| 2026-05-05 16:00 | 51.15606 | -0.13352 | 2056 ft | 188 kts | 76° |
| 2026-05-05 16:00 | 51.15903 | -0.11196 | 2410 ft | 212 kts | 76° |
| 2026-05-05 16:01 | 51.16239 | -0.08771 | 2892 ft | 236 kts | 76° |
| 2026-05-05 16:01 | 51.16603 | -0.06120 | 3566 ft | 251 kts | 76° |
| 2026-05-05 16:01 | 51.16907 | -0.03348 | 4419 ft | 261 kts | 84° |
| 2026-05-05 16:01 | 51.16918 | -0.00440 | 4896 ft | 264 kts | 89° |
| 2026-05-05 16:02 | 51.16864 | 0.02487 | 5959 ft | 266 kts | 89° |
| 2026-05-05 16:02 | 51.16795 | 0.05464 | 6842 ft | 272 kts | 90° |
| 2026-05-05 16:02 | 51.16719 | 0.08501 | 7714 ft | 277 kts | 90° |
| 2026-05-05 16:02 | 51.16645 | 0.11589 | 8588 ft | 281 kts | 90° |
| 2026-05-05 16:03 | 51.16578 | 0.14733 | 9460 ft | 286 kts | 90° |
| 2026-05-05 16:03 | 51.16535 | 0.17934 | 10299 ft | 291 kts | 90° |
| 2026-05-05 16:03 | 51.16531 | 0.21178 | 11124 ft | 294 kts | 89° |
| 2026-05-05 16:03 | 51.16544 | 0.24438 | 11999 ft | 295 kts | 89° |
| 2026-05-05 16:04 | 51.16561 | 0.27719 | 12867 ft | 297 kts | 89° |
| 2026-05-05 16:04 | 51.16579 | 0.31022 | 13712 ft | 298 kts | 89° |
| 2026-05-05 16:04 | 51.16591 | 0.34332 | 14492 ft | 299 kts | 89° |
| 2026-05-05 16:04 | 51.16597 | 0.37657 | 15188 ft | 303 kts | 89° |
| 2026-05-05 16:05 | 51.16598 | 0.41048 | 15820 ft | 308 kts | 89° |
| 2026-05-05 16:05 | 51.16596 | 0.44479 | 16492 ft | 311 kts | 89° |
| 2026-05-05 16:05 | 51.16594 | 0.46032 | 16792 ft | 313 kts | 89° |
| 2026-05-05 16:05 | 51.16590 | 0.49287 | 17393 ft | 318 kts | 89° |
| 2026-05-05 16:06 | 51.16592 | 0.52934 | 17541 ft | 340 kts | 89° |
| 2026-05-05 16:06 | 51.16593 | 0.55112 | 17640 ft | 350 kts | 89° |
| 2026-05-05 16:06 | 51.16593 | 0.57998 | 17950 ft | 357 kts | 89° |
| 2026-05-05 16:06 | 51.16589 | 0.61994 | 18492 ft | 363 kts | 89° |
| 2026-05-05 16:07 | 51.16586 | 0.64573 | 18817 ft | 366 kts | 89° |
| 2026-05-05 16:07 | 51.16582 | 0.68611 | 19348 ft | 370 kts | 89° |
| 2026-05-05 16:07 | 51.16575 | 0.72667 | 19887 ft | 373 kts | 90° |
| 2026-05-05 16:07 | 51.16565 | 0.76821 | 20437 ft | 376 kts | 90° |
| 2026-05-05 16:08 | 51.16553 | 0.81005 | 20975 ft | 379 kts | 90° |
| 2026-05-05 16:08 | 51.16541 | 0.84682 | 21439 ft | 382 kts | 90° |
| 2026-05-05 16:08 | 51.16532 | 0.87078 | 21745 ft | 383 kts | 89° |
| 2026-05-05 16:08 | 51.16522 | 0.91354 | 22262 ft | 387 kts | 90° |
| 2026-05-05 16:09 | 51.16502 | 0.95656 | 22732 ft | 391 kts | 90° |
| 2026-05-05 16:09 | 51.16481 | 1.00020 | 23168 ft | 397 kts | 91° |
| 2026-05-05 16:09 | 51.16461 | 1.04446 | 23629 ft | 402 kts | 91° |
| 2026-05-05 16:09 | 51.16438 | 1.08929 | 24045 ft | 407 kts | 91° |
| 2026-05-05 16:10 | 51.16412 | 1.13437 | 24544 ft | 408 kts | 91° |
| 2026-05-05 16:10 | 51.16387 | 1.17970 | 25001 ft | 410 kts | 92° |
| 2026-05-05 16:10 | 51.16361 | 1.22527 | 25451 ft | 412 kts | 91° |
| 2026-05-05 16:10 | 51.16333 | 1.27102 | 25923 ft | 414 kts | 92° |
| 2026-05-05 16:11 | 51.16298 | 1.31699 | 26336 ft | 416 kts | 92° |
| 2026-05-05 16:11 | 51.15935 | 1.45604 | 27663 ft | 420 kts | 97° |
| 2026-05-05 16:12 | 51.15683 | 1.50242 | 28100 ft | 421 kts | 98° |
| 2026-05-05 16:12 | 51.15148 | 1.59578 | 28890 ft | 425 kts | 98° |
| 2026-05-05 16:13 | 51.14410 | 1.73768 | 29983 ft | 431 kts | 97° |
| 2026-05-05 16:13 | 51.14176 | 1.78534 | 30278 ft | 433 kts | 97° |
| 2026-05-05 16:13 | 51.13941 | 1.83330 | 30563 ft | 435 kts | 97° |
| 2026-05-05 16:14 | 51.13453 | 1.92981 | 31119 ft | 439 kts | 97° |
| 2026-05-05 16:14 | 51.12945 | 2.02666 | 31817 ft | 438 kts | 97° |
| 2026-05-05 16:15 | 51.12436 | 2.12308 | 32639 ft | 436 kts | 97° |
| 2026-05-05 16:15 | 51.11906 | 2.21908 | 33490 ft | 435 kts | 97° |
| 2026-05-05 16:16 | 51.11380 | 2.31484 | 34260 ft | 433 kts | 97° |
| 2026-05-05 16:16 | 51.10851 | 2.41049 | 34930 ft | 434 kts | 97° |
| 2026-05-05 16:17 | 51.10322 | 2.50541 | 35465 ft | 433 kts | 98° |
| 2026-05-05 16:17 | 51.10050 | 2.55321 | 35691 ft | 434 kts | 98° |
| 2026-05-05 16:18 | 51.09165 | 2.64794 | 36125 ft | 431 kts | 109° |
| 2026-05-05 16:18 | 51.08110 | 2.69240 | 36323 ft | 429 kts | 118° |
| 2026-05-05 16:18 | 51.05330 | 2.77619 | 36720 ft | 429 kts | 121° |
| 2026-05-05 16:19 | 51.03931 | 2.81813 | 36886 ft | 430 kts | 120° |
| 2026-05-05 16:19 | 50.99765 | 2.94329 | 36911 ft | 426 kts | 120° |
| 2026-05-05 16:20 | 50.94184 | 3.10956 | 36898 ft | 430 kts | 121° |
| 2026-05-05 16:22 | 50.87123 | 3.31825 | 36872 ft | 430 kts | 121° |
| 2026-05-05 16:23 | 50.81452 | 3.48472 | 36873 ft | 430 kts | 121° |
| 2026-05-05 16:23 | 50.77178 | 3.60937 | 36878 ft | 429 kts | 121° |
| 2026-05-05 16:24 | 50.74326 | 3.69220 | 36875 ft | 429 kts | 121° |
| 2026-05-05 16:25 | 50.70037 | 3.81629 | 36872 ft | 428 kts | 121° |
| 2026-05-05 16:25 | 50.65753 | 3.93976 | 36883 ft | 427 kts | 121° |
| 2026-05-05 16:26 | 50.60051 | 4.10296 | 36877 ft | 426 kts | 121° |
| 2026-05-05 16:27 | 50.57182 | 4.18465 | 36876 ft | 426 kts | 121° |
| 2026-05-05 16:27 | 50.54311 | 4.26608 | 36874 ft | 426 kts | 121° |
| 2026-05-05 16:28 | 50.51434 | 4.34739 | 36870 ft | 425 kts | 121° |
| 2026-05-05 16:28 | 50.48556 | 4.42859 | 36873 ft | 425 kts | 122° |
| 2026-05-05 16:29 | 50.45674 | 4.50959 | 36870 ft | 425 kts | 122° |
| 2026-05-05 16:29 | 50.42798 | 4.59052 | 36867 ft | 425 kts | 122° |
| 2026-05-05 16:30 | 50.39916 | 4.67134 | 36859 ft | 424 kts | 122° |
| 2026-05-05 16:30 | 50.37017 | 4.75195 | 36861 ft | 424 kts | 122° |
| 2026-05-05 16:31 | 50.34114 | 4.83234 | 36859 ft | 424 kts | 122° |
| 2026-05-05 16:31 | 50.31208 | 4.91269 | 36860 ft | 424 kts | 122° |
| 2026-05-05 16:32 | 50.28303 | 4.99303 | 36858 ft | 424 kts | 122° |
| 2026-05-05 16:32 | 50.25423 | 5.07253 | 36848 ft | 423 kts | 122° |
| 2026-05-05 16:33 | 50.22510 | 5.15240 | 36847 ft | 423 kts | 122° |
| 2026-05-05 16:33 | 50.19593 | 5.23211 | 36848 ft | 422 kts | 122° |
| 2026-05-05 16:34 | 50.17144 | 5.29883 | 36848 ft | 422 kts | 122° |
| 2026-05-05 16:34 | 50.14218 | 5.37821 | 36842 ft | 422 kts | 122° |
| 2026-05-05 16:35 | 50.11428 | 5.45816 | 36841 ft | 423 kts | 120° |
| 2026-05-05 16:35 | 50.08738 | 5.53959 | 36824 ft | 422 kts | 120° |
| 2026-05-05 16:36 | 50.06045 | 5.62074 | 36824 ft | 421 kts | 120° |
| 2026-05-05 16:36 | 50.03312 | 5.70130 | 36817 ft | 421 kts | 121° |
| 2026-05-05 16:37 | 50.00549 | 5.78174 | 36821 ft | 422 kts | 121° |
| 2026-05-05 16:37 | 49.97781 | 5.86227 | 36815 ft | 422 kts | 121° |
| 2026-05-05 16:38 | 49.95018 | 5.94272 | 36802 ft | 422 kts | 121° |
| 2026-05-05 16:38 | 49.92255 | 6.02301 | 36811 ft | 422 kts | 121° |
| 2026-05-05 16:39 | 49.89479 | 6.10328 | 36821 ft | 422 kts | 121° |
| 2026-05-05 16:39 | 49.86698 | 6.18353 | 36823 ft | 422 kts | 121° |
| 2026-05-05 16:40 | 49.83909 | 6.26361 | 36822 ft | 422 kts | 121° |
| 2026-05-05 16:40 | 49.81114 | 6.34353 | 36813 ft | 422 kts | 121° |
| 2026-05-05 16:41 | 49.78322 | 6.42345 | 36806 ft | 422 kts | 121° |
| 2026-05-05 16:41 | 49.75524 | 6.50328 | 36808 ft | 422 kts | 121° |
| 2026-05-05 16:42 | 49.72730 | 6.58254 | 36797 ft | 422 kts | 121° |
| 2026-05-05 16:42 | 49.69910 | 6.66227 | 36797 ft | 423 kts | 121° |
| 2026-05-05 16:43 | 49.67088 | 6.74195 | 36805 ft | 422 kts | 121° |
| 2026-05-05 16:43 | 49.64259 | 6.82151 | 36795 ft | 423 kts | 122° |
| 2026-05-05 16:44 | 49.61418 | 6.90104 | 36800 ft | 423 kts | 121° |
| 2026-05-05 16:44 | 49.58585 | 6.98039 | 36802 ft | 422 kts | 122° |
| 2026-05-05 16:45 | 49.55739 | 7.05962 | 36820 ft | 423 kts | 122° |
| 2026-05-05 16:45 | 49.52885 | 7.13882 | 36821 ft | 423 kts | 122° |
| 2026-05-05 16:46 | 49.50024 | 7.21798 | 36807 ft | 423 kts | 122° |
| 2026-05-05 16:46 | 49.47162 | 7.29719 | 36811 ft | 424 kts | 122° |
| 2026-05-05 16:47 | 49.44308 | 7.37587 | 36815 ft | 424 kts | 122° |
| 2026-05-05 16:47 | 49.41419 | 7.45499 | 36817 ft | 424 kts | 122° |
| 2026-05-05 16:48 | 49.38530 | 7.53398 | 36812 ft | 424 kts | 122° |
| 2026-05-05 16:48 | 49.35637 | 7.61289 | 36796 ft | 424 kts | 122° |
| 2026-05-05 16:49 | 49.32736 | 7.69161 | 36802 ft | 424 kts | 122° |
| 2026-05-05 16:49 | 49.29834 | 7.77024 | 36812 ft | 424 kts | 122° |
| 2026-05-05 16:50 | 49.26934 | 7.84882 | 36819 ft | 423 kts | 122° |
| 2026-05-05 16:50 | 49.24028 | 7.92726 | 36819 ft | 423 kts | 123° |
| 2026-05-05 16:51 | 49.21107 | 8.00560 | 36796 ft | 424 kts | 123° |
| 2026-05-05 16:51 | 49.18185 | 8.08402 | 36803 ft | 424 kts | 123° |
| 2026-05-05 16:52 | 49.15279 | 8.16174 | 36809 ft | 424 kts | 123° |
| 2026-05-05 16:52 | 49.12318 | 8.24041 | 36813 ft | 424 kts | 123° |
| 2026-05-05 16:53 | 49.09389 | 8.31798 | 36819 ft | 424 kts | 123° |
| 2026-05-05 16:53 | 49.06435 | 8.39610 | 36822 ft | 425 kts | 123° |
| 2026-05-05 16:54 | 49.03483 | 8.47399 | 36826 ft | 425 kts | 123° |
| 2026-05-05 16:54 | 49.00497 | 8.55172 | 36829 ft | 423 kts | 127° |
| 2026-05-05 16:55 | 48.96589 | 8.61715 | 36827 ft | 415 kts | 144° |
| 2026-05-05 16:55 | 48.92061 | 8.67174 | 36824 ft | 415 kts | 144° |
| 2026-05-05 16:56 | 48.87563 | 8.72592 | 36820 ft | 415 kts | 144° |
| 2026-05-05 16:56 | 48.83032 | 8.78046 | 36799 ft | 416 kts | 144° |
| 2026-05-05 16:57 | 48.78495 | 8.83500 | 36809 ft | 416 kts | 144° |
| 2026-05-05 16:57 | 48.73942 | 8.88948 | 36819 ft | 417 kts | 144° |
| 2026-05-05 16:58 | 48.69385 | 8.94387 | 36817 ft | 417 kts | 145° |
| 2026-05-05 16:58 | 48.64813 | 8.99833 | 36820 ft | 418 kts | 145° |
| 2026-05-05 16:59 | 48.60244 | 9.05259 | 36822 ft | 418 kts | 145° |
| 2026-05-05 16:59 | 48.55667 | 9.10696 | 36823 ft | 418 kts | 145° |
| 2026-05-05 17:00 | 48.51091 | 9.16114 | 36811 ft | 418 kts | 145° |
| 2026-05-05 17:00 | 48.46513 | 9.21526 | 36831 ft | 418 kts | 145° |
| 2026-05-05 17:01 | 48.41935 | 9.26914 | 36826 ft | 417 kts | 145° |
| 2026-05-05 17:01 | 48.37389 | 9.32255 | 36827 ft | 417 kts | 145° |
| 2026-05-05 17:02 | 48.32815 | 9.37633 | 36828 ft | 417 kts | 145° |
| 2026-05-05 17:02 | 48.31200 | 9.39526 | 36825 ft | 417 kts | 145° |
| 2026-05-05 17:10 | 48.30096 | 9.40807 | 36833 ft | 417 kts | 146° |
| 2026-05-05 17:10 | 48.25511 | 9.46137 | 36804 ft | 417 kts | 146° |
| 2026-05-05 17:11 | 48.20984 | 9.51604 | 36810 ft | 418 kts | 144° |
| 2026-05-05 17:11 | 48.16505 | 9.57200 | 36814 ft | 419 kts | 144° |
| 2026-05-05 17:12 | 48.12010 | 9.62771 | 36817 ft | 419 kts | 144° |
| 2026-05-05 17:12 | 48.07527 | 9.68271 | 36812 ft | 419 kts | 144° |
| 2026-05-05 17:13 | 48.03002 | 9.73799 | 36824 ft | 420 kts | 144° |
| 2026-05-05 17:13 | 47.99209 | 9.78420 | 36820 ft | 420 kts | 145° |
| 2026-05-05 17:14 | 47.94679 | 9.83937 | 36805 ft | 421 kts | 145° |
| 2026-05-05 17:14 | 47.90144 | 9.89452 | 36818 ft | 421 kts | 145° |
| 2026-05-05 17:15 | 47.85598 | 9.94958 | 36827 ft | 421 kts | 146° |
| 2026-05-05 17:15 | 47.81051 | 10.00442 | 36836 ft | 421 kts | 146° |
| 2026-05-05 17:16 | 47.76530 | 10.05889 | 36836 ft | 421 kts | 146° |
| 2026-05-05 17:16 | 47.71968 | 10.11375 | 36836 ft | 422 kts | 146° |
| 2026-05-05 17:17 | 47.67399 | 10.16851 | 36825 ft | 422 kts | 146° |
| 2026-05-05 17:17 | 47.62826 | 10.22331 | 36834 ft | 422 kts | 146° |
| 2026-05-05 17:18 | 47.58259 | 10.27794 | 36843 ft | 422 kts | 146° |
| 2026-05-05 17:18 | 47.53544 | 10.32895 | 36833 ft | 418 kts | 152° |
| 2026-05-05 17:19 | 47.48683 | 10.37620 | 36839 ft | 418 kts | 152° |
| 2026-05-05 17:19 | 47.43815 | 10.42347 | 36844 ft | 418 kts | 152° |
| 2026-05-05 17:20 | 47.41284 | 10.44798 | 36814 ft | 419 kts | 152° |
| 2026-05-05 17:20 | 47.36761 | 10.49174 | 36842 ft | 418 kts | 152° |
| 2026-05-05 17:21 | 47.31895 | 10.53864 | 36839 ft | 417 kts | 152° |
| 2026-05-05 17:22 | 47.29637 | 10.56035 | 36848 ft | 417 kts | 153° |
| 2026-05-05 17:22 | 47.24793 | 10.60865 | 36850 ft | 419 kts | 150° |
| 2026-05-05 17:23 | 47.20100 | 10.65865 | 36855 ft | 420 kts | 149° |
| 2026-05-05 17:23 | 47.15381 | 10.70906 | 36854 ft | 419 kts | 150° |
| 2026-05-05 17:24 | 47.10642 | 10.75881 | 36832 ft | 418 kts | 150° |
| 2026-05-05 17:24 | 47.05884 | 10.80834 | 36851 ft | 421 kts | 150° |
| 2026-05-05 17:25 | 47.01106 | 10.85806 | 36877 ft | 422 kts | 150° |
| 2026-05-05 17:25 | 46.96312 | 10.90792 | 36892 ft | 423 kts | 150° |
| 2026-05-05 17:26 | 46.91516 | 10.95764 | 36919 ft | 422 kts | 150° |
| 2026-05-05 17:26 | 46.86705 | 11.00732 | 36927 ft | 423 kts | 150° |
| 2026-05-05 17:27 | 46.81914 | 11.05722 | 36948 ft | 426 kts | 147° |
| 2026-05-05 17:27 | 46.77653 | 11.11856 | 36921 ft | 431 kts | 139° |
| 2026-05-05 17:28 | 46.73492 | 11.18162 | 36949 ft | 432 kts | 139° |
| 2026-05-05 17:28 | 46.69309 | 11.24466 | 36955 ft | 433 kts | 139° |
| 2026-05-05 17:29 | 46.65136 | 11.30729 | 36960 ft | 434 kts | 139° |
| 2026-05-05 17:29 | 46.60925 | 11.37043 | 36965 ft | 435 kts | 139° |
| 2026-05-05 17:30 | 46.56727 | 11.43345 | 36942 ft | 433 kts | 139° |
| 2026-05-05 17:30 | 46.52525 | 11.49629 | 36949 ft | 433 kts | 139° |
| 2026-05-05 17:31 | 46.48310 | 11.55896 | 36956 ft | 434 kts | 139° |
| 2026-05-05 17:31 | 46.47152 | 11.57618 | 36958 ft | 434 kts | 139° |
| 2026-05-05 17:32 | 46.45919 | 11.59450 | 36963 ft | 434 kts | 139° |
| 2026-05-05 17:32 | 46.44023 | 11.62266 | 36966 ft | 434 kts | 139° |
| 2026-05-05 17:33 | 46.40847 | 11.66982 | 36968 ft | 434 kts | 139° |
| 2026-05-05 17:34 | 46.36649 | 11.73190 | 36981 ft | 434 kts | 139° |
| 2026-05-05 17:34 | 46.32392 | 11.79464 | 36981 ft | 434 kts | 139° |
| 2026-05-05 17:35 | 46.28348 | 11.85412 | 36983 ft | 435 kts | 140° |
| 2026-05-05 17:35 | 46.27815 | 11.86196 | 36982 ft | 435 kts | 139° |
| 2026-05-05 17:36 | 46.23581 | 11.92428 | 36986 ft | 434 kts | 139° |
| 2026-05-05 17:36 | 46.19343 | 11.98641 | 36989 ft | 434 kts | 140° |
| 2026-05-05 17:37 | 46.15100 | 12.04844 | 36980 ft | 434 kts | 139° |
| 2026-05-05 17:37 | 46.10847 | 12.11055 | 36989 ft | 436 kts | 139° |
| 2026-05-05 17:38 | 46.06580 | 12.17266 | 36987 ft | 436 kts | 139° |
| 2026-05-05 17:38 | 46.02306 | 12.23465 | 37000 ft | 436 kts | 139° |
| 2026-05-05 17:39 | 46.00159 | 12.26577 | 36996 ft | 436 kts | 139° |
| 2026-05-05 17:39 | 45.99375 | 12.27714 | 36992 ft | 436 kts | 139° |
| 2026-05-05 17:40 | 45.95351 | 12.33535 | 36994 ft | 436 kts | 139° |
| 2026-05-05 17:40 | 45.91085 | 12.39703 | 36984 ft | 436 kts | 139° |
| 2026-05-05 17:41 | 45.86803 | 12.45884 | 36975 ft | 437 kts | 139° |
| 2026-05-05 17:41 | 45.82494 | 12.52064 | 36981 ft | 437 kts | 139° |
| 2026-05-05 17:42 | 45.78187 | 12.58230 | 36981 ft | 438 kts | 139° |
| 2026-05-05 17:42 | 45.73867 | 12.64405 | 36984 ft | 439 kts | 139° |
| 2026-05-05 17:43 | 45.69550 | 12.70575 | 36976 ft | 439 kts | 139° |
| 2026-05-05 17:43 | 45.65243 | 12.76697 | 36984 ft | 439 kts | 139° |
| 2026-05-05 17:44 | 45.60881 | 12.82889 | 36976 ft | 439 kts | 139° |
| 2026-05-05 17:44 | 45.56565 | 12.89010 | 36977 ft | 440 kts | 139° |
| 2026-05-05 17:45 | 45.52227 | 12.95151 | 36963 ft | 440 kts | 139° |
| 2026-05-05 17:45 | 45.47868 | 13.01290 | 36968 ft | 440 kts | 139° |
| 2026-05-05 17:46 | 45.43502 | 13.07434 | 36974 ft | 441 kts | 139° |
| 2026-05-05 17:46 | 45.39134 | 13.13573 | 36969 ft | 442 kts | 139° |
| 2026-05-05 17:47 | 45.34746 | 13.19725 | 36969 ft | 443 kts | 140° |
| 2026-05-05 17:47 | 45.30432 | 13.25996 | 36963 ft | 447 kts | 132° |
| 2026-05-05 17:48 | 45.26550 | 13.32897 | 36975 ft | 447 kts | 132° |
| 2026-05-05 17:48 | 45.22663 | 13.39793 | 36987 ft | 447 kts | 132° |
| 2026-05-05 17:49 | 45.18773 | 13.46673 | 36988 ft | 447 kts | 132° |
| 2026-05-05 17:49 | 45.14898 | 13.53508 | 36982 ft | 448 kts | 133° |
| 2026-05-05 17:50 | 45.10980 | 13.60392 | 36975 ft | 449 kts | 133° |
| 2026-05-05 17:50 | 45.07043 | 13.67282 | 36988 ft | 450 kts | 133° |
| 2026-05-05 17:51 | 45.03098 | 13.74181 | 36996 ft | 451 kts | 133° |
| 2026-05-05 17:51 | 44.99148 | 13.81075 | 37011 ft | 451 kts | 133° |
| 2026-05-05 17:52 | 44.95198 | 13.87958 | 37021 ft | 451 kts | 133° |
| 2026-05-05 17:52 | 44.91239 | 13.94829 | 37000 ft | 451 kts | 133° |
| 2026-05-05 17:53 | 44.87913 | 14.00597 | 36994 ft | 452 kts | 133° |
| 2026-05-05 17:53 | 44.83933 | 14.07481 | 37004 ft | 454 kts | 133° |
| 2026-05-05 17:54 | 44.79940 | 14.14384 | 37003 ft | 455 kts | 133° |
| 2026-05-05 17:54 | 44.75960 | 14.21240 | 37003 ft | 455 kts | 133° |
| 2026-05-05 17:55 | 44.71941 | 14.28130 | 37012 ft | 456 kts | 133° |
| 2026-05-05 17:55 | 44.67922 | 14.35024 | 37018 ft | 456 kts | 133° |
| 2026-05-05 17:56 | 44.63894 | 14.41904 | 37003 ft | 456 kts | 133° |
| 2026-05-05 17:56 | 44.59846 | 14.48792 | 37000 ft | 457 kts | 133° |
| 2026-05-05 17:57 | 44.55792 | 14.55679 | 37004 ft | 458 kts | 133° |
| 2026-05-05 17:57 | 44.51736 | 14.62556 | 37010 ft | 458 kts | 133° |
| 2026-05-05 17:58 | 44.47665 | 14.69432 | 37014 ft | 458 kts | 133° |
| 2026-05-05 17:58 | 44.43595 | 14.76310 | 37021 ft | 459 kts | 133° |
| 2026-05-05 17:59 | 44.39516 | 14.83184 | 37007 ft | 459 kts | 134° |
| 2026-05-05 17:59 | 44.35419 | 14.90070 | 37010 ft | 461 kts | 134° |
| 2026-05-05 18:00 | 44.31310 | 14.96960 | 37012 ft | 462 kts | 134° |
| 2026-05-05 18:00 | 44.27185 | 15.03854 | 37017 ft | 463 kts | 134° |
| 2026-05-05 18:01 | 44.23050 | 15.10746 | 37038 ft | 463 kts | 133° |
| 2026-05-05 18:01 | 44.18914 | 15.17619 | 37052 ft | 462 kts | 134° |
| 2026-05-05 18:02 | 44.14784 | 15.24472 | 37035 ft | 462 kts | 134° |
| 2026-05-05 18:02 | 44.10647 | 15.31333 | 37031 ft | 463 kts | 134° |
| 2026-05-05 18:03 | 44.06523 | 15.38159 | 37030 ft | 464 kts | 133° |
| 2026-05-05 18:03 | 44.02370 | 15.45020 | 37038 ft | 464 kts | 134° |
| 2026-05-05 18:04 | 43.98208 | 15.51857 | 37042 ft | 463 kts | 134° |
| 2026-05-05 18:04 | 43.94037 | 15.58674 | 37044 ft | 463 kts | 134° |
| 2026-05-05 18:05 | 43.89864 | 15.65494 | 37024 ft | 463 kts | 133° |
| 2026-05-05 18:05 | 43.85692 | 15.72306 | 37029 ft | 464 kts | 134° |
| 2026-05-05 18:06 | 43.81510 | 15.79128 | 37040 ft | 464 kts | 134° |
| 2026-05-05 18:06 | 43.77320 | 15.85937 | 37021 ft | 465 kts | 134° |
| 2026-05-05 18:06 | 43.75211 | 15.89355 | 36406 ft | 469 kts | 134° |
| 2026-05-05 18:07 | 43.73097 | 15.92782 | 35809 ft | 467 kts | 134° |
| 2026-05-05 18:07 | 43.70992 | 15.96188 | 35253 ft | 465 kts | 134° |
| 2026-05-05 18:07 | 43.68895 | 15.99576 | 34727 ft | 463 kts | 134° |
| 2026-05-05 18:07 | 43.66812 | 16.02936 | 34282 ft | 458 kts | 134° |
| 2026-05-05 18:08 | 43.64750 | 16.06261 | 33821 ft | 454 kts | 134° |
| 2026-05-05 18:08 | 43.62704 | 16.09555 | 33325 ft | 450 kts | 134° |
| 2026-05-05 18:08 | 43.60653 | 16.12848 | 32548 ft | 452 kts | 134° |
| 2026-05-05 18:08 | 43.58630 | 16.16089 | 31920 ft | 452 kts | 134° |
| 2026-05-05 18:09 | 43.56583 | 16.19371 | 31244 ft | 452 kts | 134° |
| 2026-05-05 18:09 | 43.54537 | 16.22650 | 30687 ft | 450 kts | 134° |
| 2026-05-05 18:09 | 43.52503 | 16.25910 | 30140 ft | 447 kts | 134° |
| 2026-05-05 18:09 | 43.50450 | 16.29206 | 29500 ft | 445 kts | 133° |
| 2026-05-05 18:10 | 43.48671 | 16.32601 | 29048 ft | 442 kts | 124° |
| 2026-05-05 18:10 | 43.47041 | 16.36150 | 28596 ft | 436 kts | 124° |
| 2026-05-05 18:10 | 43.45427 | 16.39650 | 28142 ft | 430 kts | 124° |
| 2026-05-05 18:10 | 43.43827 | 16.43107 | 27694 ft | 425 kts | 124° |
| 2026-05-05 18:11 | 43.42243 | 16.46517 | 27254 ft | 421 kts | 124° |
| 2026-05-05 18:11 | 43.40668 | 16.49895 | 26790 ft | 418 kts | 124° |
| 2026-05-05 18:11 | 43.39105 | 16.53244 | 26337 ft | 414 kts | 124° |
| 2026-05-05 18:11 | 43.37556 | 16.56567 | 25867 ft | 412 kts | 124° |
| 2026-05-05 18:12 | 43.36009 | 16.59876 | 25391 ft | 410 kts | 124° |
| 2026-05-05 18:12 | 43.34471 | 16.63164 | 24897 ft | 408 kts | 124° |
| 2026-05-05 18:12 | 43.32941 | 16.66439 | 24408 ft | 407 kts | 124° |
| 2026-05-05 18:12 | 43.31416 | 16.69704 | 23907 ft | 405 kts | 124° |
| 2026-05-05 18:13 | 43.29895 | 16.72959 | 23362 ft | 404 kts | 124° |
| 2026-05-05 18:13 | 43.28380 | 16.76196 | 22859 ft | 401 kts | 124° |
| 2026-05-05 18:13 | 43.26878 | 16.79401 | 22372 ft | 398 kts | 124° |
| 2026-05-05 18:13 | 43.25384 | 16.82583 | 21898 ft | 395 kts | 124° |
| 2026-05-05 18:14 | 43.23899 | 16.85730 | 21424 ft | 392 kts | 124° |
| 2026-05-05 18:14 | 43.22423 | 16.88854 | 20961 ft | 388 kts | 124° |
| 2026-05-05 18:14 | 43.20961 | 16.91947 | 20501 ft | 386 kts | 124° |
| 2026-05-05 18:14 | 43.19506 | 16.95024 | 20042 ft | 383 kts | 124° |
| 2026-05-05 18:15 | 43.18063 | 16.98077 | 19588 ft | 380 kts | 124° |
| 2026-05-05 18:15 | 43.16628 | 17.01109 | 19141 ft | 378 kts | 124° |
| 2026-05-05 18:15 | 43.15196 | 17.04126 | 18694 ft | 377 kts | 124° |
| 2026-05-05 18:15 | 43.13775 | 17.07122 | 18318 ft | 372 kts | 124° |
| 2026-05-05 18:16 | 43.12360 | 17.10086 | 17771 ft | 373 kts | 125° |
| 2026-05-05 18:16 | 43.10927 | 17.13029 | 17339 ft | 371 kts | 126° |
| 2026-05-05 18:16 | 43.09492 | 17.15946 | 16911 ft | 369 kts | 126° |
| 2026-05-05 18:16 | 43.08080 | 17.18811 | 16491 ft | 367 kts | 126° |
| 2026-05-05 18:17 | 43.06658 | 17.21694 | 16069 ft | 364 kts | 126° |
| 2026-05-05 18:17 | 43.05245 | 17.24557 | 15656 ft | 362 kts | 126° |
| 2026-05-05 18:17 | 43.03837 | 17.27406 | 15251 ft | 359 kts | 126° |
| 2026-05-05 18:17 | 43.02442 | 17.30226 | 14837 ft | 357 kts | 126° |
| 2026-05-05 18:18 | 43.01053 | 17.33036 | 14434 ft | 355 kts | 126° |
| 2026-05-05 18:18 | 42.99679 | 17.35822 | 14027 ft | 353 kts | 126° |
| 2026-05-05 18:18 | 42.98310 | 17.38604 | 13596 ft | 351 kts | 126° |
| 2026-05-05 18:18 | 42.96951 | 17.41361 | 13177 ft | 348 kts | 126° |
| 2026-05-05 18:19 | 42.95601 | 17.44095 | 12758 ft | 345 kts | 126° |
| 2026-05-05 18:19 | 42.94260 | 17.46802 | 12353 ft | 343 kts | 126° |
| 2026-05-05 18:19 | 42.92926 | 17.49489 | 11936 ft | 340 kts | 126° |
| 2026-05-05 18:19 | 42.91604 | 17.52153 | 11526 ft | 337 kts | 126° |
| 2026-05-05 18:20 | 42.90237 | 17.54726 | 11111 ft | 335 kts | 134° |
| 2026-05-05 18:20 | 42.88620 | 17.57005 | 10640 ft | 333 kts | 136° |
| 2026-05-05 18:20 | 42.87016 | 17.59237 | 10162 ft | 324 kts | 136° |
| 2026-05-05 18:20 | 42.85471 | 17.61388 | 9654 ft | 311 kts | 136° |
| 2026-05-05 18:21 | 42.83993 | 17.63445 | 9215 ft | 297 kts | 137° |
| 2026-05-05 18:21 | 42.82574 | 17.65422 | 8815 ft | 283 kts | 137° |
| 2026-05-05 18:21 | 42.81225 | 17.67301 | 8543 ft | 275 kts | 137° |
| 2026-05-05 18:21 | 42.79889 | 17.69152 | 8180 ft | 273 kts | 137° |
| 2026-05-05 18:22 | 42.78559 | 17.70993 | 7787 ft | 272 kts | 137° |
| 2026-05-05 18:22 | 42.77343 | 17.72956 | 7401 ft | 273 kts | 126° |
| 2026-05-05 18:22 | 42.76424 | 17.75218 | 6995 ft | 273 kts | 121° |
| 2026-05-05 18:22 | 42.75540 | 17.77498 | 6594 ft | 272 kts | 121° |
| 2026-05-05 18:23 | 42.74656 | 17.79771 | 6167 ft | 271 kts | 122° |
| 2026-05-05 18:23 | 42.73772 | 17.82032 | 5735 ft | 272 kts | 121° |
| 2026-05-05 18:23 | 42.72885 | 17.84295 | 5311 ft | 270 kts | 121° |
| 2026-05-05 18:23 | 42.72028 | 17.86486 | 5117 ft | 259 kts | 121° |
| 2026-05-05 18:24 | 42.71203 | 17.88598 | 5010 ft | 247 kts | 121° |
| 2026-05-05 18:24 | 42.70427 | 17.90588 | 4974 ft | 231 kts | 121° |
| 2026-05-05 18:24 | 42.69685 | 17.92458 | 4889 ft | 219 kts | 122° |
| 2026-05-05 18:24 | 42.68975 | 17.94251 | 4798 ft | 214 kts | 121° |
| 2026-05-05 18:25 | 42.68276 | 17.96029 | 4699 ft | 213 kts | 121° |
| 2026-05-05 18:25 | 42.68041 | 17.96628 | 4663 ft | 213 kts | 121° |
| 2026-05-05 18:25 | 42.66916 | 17.99497 | 4536 ft | 198 kts | 122° |
| 2026-05-05 18:25 | 42.66281 | 18.01114 | 4373 ft | 190 kts | 121° |
| 2026-05-05 18:26 | 42.65666 | 18.02678 | 4127 ft | 185 kts | 121° |
| 2026-05-05 18:26 | 42.65068 | 18.04198 | 3890 ft | 180 kts | 121° |
| 2026-05-05 18:26 | 42.64483 | 18.05684 | 3649 ft | 176 kts | 121° |
| 2026-05-05 18:26 | 42.63911 | 18.07137 | 3429 ft | 172 kts | 121° |
| 2026-05-05 18:27 | 42.63354 | 18.08552 | 3201 ft | 168 kts | 121° |
| 2026-05-05 18:27 | 42.62807 | 18.09941 | 2973 ft | 165 kts | 121° |
| 2026-05-05 18:27 | 42.62270 | 18.11305 | 2759 ft | 162 kts | 120° |
| 2026-05-05 18:27 | 42.61750 | 18.12624 | 2543 ft | 154 kts | 120° |
| 2026-05-05 18:28 | 42.60818 | 18.14984 | 2168 ft | 135 kts | 120° |
| 2026-05-05 18:28 | 42.60381 | 18.16093 | 1997 ft | 133 kts | 120° |
| 2026-05-05 18:28 | 42.59947 | 18.17190 | 1818 ft | 131 kts | 119° |
| 2026-05-05 18:29 | 42.59521 | 18.18269 | 1635 ft | 129 kts | 119° |
| 2026-05-05 18:29 | 42.59090 | 18.19353 | 1445 ft | 130 kts | 118° |
| 2026-05-05 18:29 | 42.58659 | 18.20441 | 1270 ft | 132 kts | 117° |
| 2026-05-05 18:29 | 42.58226 | 18.21537 | 1105 ft | 133 kts | 118° |
| 2026-05-05 18:30 | 42.57792 | 18.22637 | 937 ft | 131 kts | 117° |
| 2026-05-05 18:30 | 42.57362 | 18.23718 | 740 ft | 130 kts | 118° |
| 2026-05-05 18:30 | 42.56937 | 18.24804 | 580 ft | 130 kts | 117° |
| 2026-05-05 18:30 | 42.56541 | 18.25806 | 535 ft | 102 kts | 118° |
| 2026-05-05 18:31 | 42.56284 | 18.26452 | 533 ft | 54 kts | 117° |
| 2026-05-05 18:31 | 42.56143 | 18.26808 | 534 ft | 38 kts | 118° |
| 2026-05-05 18:31 | 42.56031 | 18.27098 | 533 ft | 29 kts | 116° |
| 2026-05-05 18:31 | 42.55955 | 18.27277 | 533 ft | 21 kts | 126° |
| 2026-05-05 18:32 | 42.55836 | 18.27337 | 533 ft | 17 kts | 171° |
| 2026-05-05 18:32 | 42.55785 | 18.27342 | 534 ft | 10 kts | 191° |
| 2026-05-05 18:32 | 42.55764 | 18.27299 | 534 ft | 4 kts | 275° |
| 2026-05-05 18:32 | 42.55770 | 18.27280 | 534 ft | 0 kts | 297° |
| 2026-05-05 18:33 | 42.55771 | 18.27279 | 534 ft | 1 kts | 297° |
| 2026-05-05 18:33 | 42.55772 | 18.27274 | 534 ft | 2 kts | 297° |
| 2026-05-05 18:34 | 42.55795 | 18.27216 | 534 ft | 9 kts | 297° |
| 2026-05-05 18:34 | 42.55838 | 18.27105 | 534 ft | 17 kts | 298° |
| 2026-05-05 18:34 | 42.55901 | 18.26946 | 534 ft | 21 kts | 298° |
| 2026-05-05 18:34 | 42.55968 | 18.26777 | 534 ft | 16 kts | 298° |
| 2026-05-05 18:35 | 42.56000 | 18.26697 | 534 ft | 5 kts | 295° |
| 2026-05-05 18:35 | 42.55983 | 18.26677 | 534 ft | 4 kts | 208° |
| 2026-05-05 18:35 | 42.55959 | 18.26659 | 534 ft | 3 kts | 208° |
| 2026-05-05 18:35 | 42.55952 | 18.26654 | 534 ft | 0 kts | 208° |